METAR Data
IDs: Format: Raw Decoded Include TAF

Data at: 0112 UTC 06 Dec 2019

KAIK 060055Z AUTO 00000KT 10SM CLR 05/00 A3021 RMK AO2
KAIK 050015Z AUTO 25009KT 10SM CLR 11/00 A2988 RMK AO2
KAIK 042355Z AUTO 24008KT 10SM CLR 10/00 A2987 RMK AO2
KAIK 042335Z AUTO 24007KT 10SM CLR 09/00 A2987 RMK AO2
KAIK 042315Z AUTO 25007KT 10SM CLR 11/00 A2986 RMK AO2
KAIK 042255Z AUTO 24006KT 10SM CLR 10/00 A2985 RMK AO2
KAIK 042235Z AUTO 24005KT 10SM CLR 11/00 A2984 RMK AO2
KAIK 042215Z AUTO 25007KT 10SM CLR 12/00 A2984 RMK AO2
KAIK 042155Z AUTO 25006KT 10SM CLR 13/00 A2983 RMK AO2
KAIK 042135Z AUTO 25011G15KT 10SM CLR 14/00 A2983 RMK AO2
KAIK 042115Z AUTO 25008G14KT 10SM CLR 15/00 A2983 RMK AO2
KAIK 042055Z AUTO 26011G15KT 10SM CLR 15/00 A2983 RMK AO2
KAIK 042035Z AUTO 27012G19KT 10SM CLR 15/00 A2982 RMK AO2
KAIK 042015Z AUTO 25014G17KT 10SM CLR 15/00 A2982 RMK AO2
KAIK 041955Z AUTO 25014G22KT 10SM CLR 15/00 A2982 RMK AO2
KAIK 041935Z AUTO 26012KT 10SM CLR 15/00 A2981 RMK AO2
KAIK 041915Z AUTO 27011G22KT 10SM CLR 15/00 A2981 RMK AO2
KAIK 041855Z AUTO 27012G17KT 10SM CLR 15/00 A2981 RMK AO2
KAIK 041835Z AUTO 26013G19KT 10SM CLR 15/00 A2982 RMK AO2
KAIK 041815Z AUTO 26012G18KT 10SM CLR 14/00 A2982 RMK AO2
KAIK 041755Z AUTO 23013G18KT 10SM CLR 13/00 A2983 RMK AO2
KAIK 041735Z AUTO 25010KT 10SM CLR 13/00 A2983 RMK AO2
KAIK 041715Z AUTO 25011KT 10SM CLR 13/00 A2984 RMK AO2
KAIK 041655Z AUTO 25009G16KT 10SM CLR 12/00 A2985 RMK AO2
KAIK 041635Z AUTO 25007KT 10SM CLR 11/00 A2986 RMK AO2
KAIK 041615Z AUTO 26007KT 10SM CLR 11/00 A2988 RMK AO2
KAIK 041555Z AUTO 27005KT 10SM CLR 10/00 A2988 RMK AO2
KAIK 041535Z AUTO 24008KT 10SM CLR 09/00 A2988 RMK AO2
KAIK 041515Z AUTO 23004KT 10SM CLR 08/00 A2988 RMK AO2
KAIK 041415Z AUTO 26006KT 10SM CLR 05/00 A2988 RMK AO2
KAIK 041355Z AUTO 26004KT 10SM CLR 03/00 A2988 RMK AO2
KAIK 041335Z AUTO 27004KT 10SM CLR 02/00 A2988 RMK AO2
KAIK 041315Z AUTO 24004KT 10SM CLR 01/00 A2986 RMK AO2